createdAt,value
2022-11-05T00:00:19.143Z,80.00
2022-11-05T00:03:05.159Z,80.00
2022-11-05T00:05:51.068Z,80.10
2022-11-05T00:08:36.273Z,80.20
2022-11-05T00:11:03.237Z,80.30
2022-11-05T00:13:48.471Z,80.40
2022-11-05T00:16:33.901Z,80.50
2022-11-05T00:19:06.692Z,80.60
2022-11-05T00:21:53.666Z,80.70
2022-11-05T00:24:39.521Z,80.80
2022-11-05T00:27:06.763Z,80.90
2022-11-05T00:29:34.186Z,81.00
2022-11-05T00:32:01.556Z,81.10
2022-11-05T00:34:28.516Z,81.20
2022-11-05T00:36:56.538Z,81.20
2022-11-05T00:39:23.480Z,81.30
2022-11-05T00:42:10.384Z,81.30
2022-11-05T00:44:55.788Z,81.30
2022-11-05T00:47:41.155Z,81.40
2022-11-05T00:50:10.652Z,81.40
2022-11-05T00:52:56.791Z,81.40
2022-11-05T00:55:35.681Z,81.40
2022-11-05T00:58:04.993Z,81.30
2022-11-05T01:00:33.625Z,81.30
2022-11-05T01:06:50.356Z,81.30
2022-11-05T01:09:17.354Z,81.30
2022-11-05T01:11:46.092Z,81.30
2022-11-05T01:14:15.999Z,81.30
2022-11-05T01:16:43.246Z,81.30
2022-11-05T01:19:11.362Z,81.30
2022-11-05T01:21:38.731Z,81.30
2022-11-05T01:24:05.938Z,81.40
2022-11-05T01:26:32.924Z,81.40
2022-11-05T01:29:00.617Z,81.40
2022-11-05T01:31:28.700Z,81.30
2022-11-05T01:33:55.655Z,81.30
2022-11-05T01:36:22.757Z,81.20
2022-11-05T01:38:49.755Z,81.20
2022-11-05T01:41:17.834Z,81.20
2022-11-05T01:43:51.420Z,81.10
2022-11-05T01:46:23.167Z,81.10
2022-11-05T01:48:54.434Z,81.10
2022-11-05T01:51:26.938Z,81.10
2022-11-05T01:54:05.698Z,81.10
2022-11-05T01:56:40.979Z,81.10
2022-11-05T01:59:30.931Z,81.00
2022-11-05T02:01:59.310Z,80.90
2022-11-05T02:04:40.161Z,80.80
2022-11-05T02:07:09.401Z,80.70
2022-11-05T02:09:45.235Z,80.60
2022-11-05T02:12:14.574Z,80.50
2022-11-05T02:14:41.438Z,80.40
2022-11-05T02:17:35.560Z,80.40
2022-11-05T02:20:51.854Z,80.30
2022-11-05T02:23:41.989Z,80.20
2022-11-05T02:26:53.279Z,80.10
2022-11-05T02:29:55.170Z,80.00
2022-11-05T02:32:49.604Z,79.90
2022-11-05T02:35:31.242Z,79.90
2022-11-05T02:38:10.500Z,79.80
2022-11-05T02:41:03.029Z,79.90
2022-11-05T02:43:46.962Z,80.00
2022-11-05T02:46:26.883Z,80.10
2022-11-05T02:49:08.830Z,80.30
2022-11-05T02:51:44.603Z,80.50
2022-11-05T02:54:34.013Z,80.70
2022-11-05T02:57:03.468Z,81.00
2022-11-05T02:59:30.877Z,81.20
2022-11-05T03:02:00.552Z,81.30
2022-11-05T03:04:28.494Z,81.40
2022-11-05T03:07:06.679Z,81.40
2022-11-05T03:09:58.867Z,81.30
2022-11-05T03:12:52.814Z,81.20
2022-11-05T03:15:25.549Z,81.10
2022-11-05T03:18:09.206Z,81.00
2022-11-05T03:21:02.914Z,80.90
2022-11-05T03:23:44.097Z,80.90
2022-11-05T03:26:17.635Z,81.10
2022-11-05T03:28:50.575Z,81.20
2022-11-05T03:31:19.565Z,81.30
2022-11-05T03:33:48.430Z,81.30
2022-11-05T03:36:21.848Z,81.40
2022-11-05T03:38:52.977Z,81.40
2022-11-05T03:41:22.151Z,81.40
2022-11-05T03:43:54.057Z,81.50
2022-11-05T03:46:29.354Z,81.60
2022-11-05T03:48:59.064Z,81.70
2022-11-05T03:51:49.150Z,81.80
2022-11-05T03:54:16.217Z,81.90
2022-11-05T03:56:58.218Z,81.90
2022-11-05T03:59:26.161Z,81.90
2022-11-05T04:01:53.972Z,81.80
2022-11-05T04:04:21.019Z,81.80
2022-11-05T04:07:06.306Z,81.80
2022-11-05T04:09:51.756Z,81.80
2022-11-05T04:12:37.134Z,81.70
2022-11-05T04:15:04.435Z,81.70
2022-11-05T04:17:31.334Z,81.70
2022-11-05T04:20:17.087Z,81.70
2022-11-05T04:23:02.485Z,81.70
2022-11-05T04:25:29.454Z,81.70
2022-11-05T04:28:00.532Z,81.80
2022-11-05T04:30:27.548Z,81.90
2022-11-05T04:33:00.319Z,82.00
2022-11-05T04:35:39.362Z,82.00
2022-11-05T04:38:09.195Z,82.00
2022-11-05T04:40:36.862Z,82.00
2022-11-05T04:43:04.605Z,82.00
2022-11-05T04:45:34.420Z,82.00
2022-11-05T04:48:02.687Z,82.00
2022-11-05T04:50:29.800Z,81.90
2022-11-05T04:52:57.148Z,81.90
2022-11-05T04:55:24.228Z,82.00
2022-11-05T04:57:52.285Z,82.00
2022-11-05T05:00:20.723Z,82.00
2022-11-05T05:02:48.326Z,82.10
2022-11-05T05:05:15.285Z,82.10
2022-11-05T05:07:42.547Z,82.10
2022-11-05T05:10:10.602Z,82.10
2022-11-05T05:12:37.584Z,82.10
2022-11-05T05:15:04.898Z,82.10
2022-11-05T05:17:31.834Z,82.10
2022-11-05T05:20:17.504Z,82.10
2022-11-05T05:22:44.498Z,82.00
2022-11-05T05:25:11.396Z,82.00
2022-11-05T05:27:38.355Z,81.90
2022-11-05T05:30:05.723Z,81.90
2022-11-05T05:32:33.018Z,81.90
2022-11-05T05:34:59.918Z,81.90
2022-11-05T05:37:26.847Z,81.80
2022-11-05T05:39:53.760Z,81.70
2022-11-05T05:42:22.922Z,81.80
2022-11-05T05:44:49.806Z,81.80
2022-11-05T05:47:16.746Z,81.80
2022-11-05T05:49:43.645Z,81.90
2022-11-05T05:52:10.623Z,81.90
2022-11-05T05:54:42.483Z,81.90
2022-11-05T05:57:10.507Z,81.90
2022-11-05T05:59:37.432Z,82.00
2022-11-05T06:02:04.583Z,82.00
2022-11-05T06:04:31.575Z,82.10
2022-11-05T06:06:58.485Z,82.10
2022-11-05T06:09:25.386Z,82.10
2022-11-05T06:11:52.375Z,82.20
2022-11-05T06:14:19.279Z,82.30
2022-11-05T06:16:46.254Z,82.30
2022-11-05T06:19:13.392Z,82.40
2022-11-05T06:21:40.355Z,82.40
2022-11-05T06:24:07.689Z,82.60
2022-11-05T06:26:34.645Z,82.60
2022-11-05T06:29:01.560Z,82.70
2022-11-05T06:31:28.592Z,82.80
2022-11-05T06:33:55.518Z,82.90
2022-11-05T06:36:22.491Z,83.10
2022-11-05T06:38:49.497Z,83.10
2022-11-05T06:41:16.456Z,83.30
2022-11-05T06:43:43.428Z,83.40
2022-11-05T06:46:11.541Z,83.40
2022-11-05T06:48:38.775Z,83.50
2022-11-05T06:51:07.145Z,83.50
2022-11-05T06:53:34.789Z,83.60
2022-11-05T06:56:07.209Z,83.70
2022-11-05T06:58:34.341Z,83.70
2022-11-05T07:01:05.257Z,83.80
2022-11-05T07:03:32.423Z,83.80
2022-11-05T07:06:00.890Z,83.90
2022-11-05T07:08:32.461Z,83.90
2022-11-05T07:11:00.134Z,84.00
2022-11-05T07:13:27.320Z,84.00
2022-11-05T07:15:54.498Z,84.00
2022-11-05T07:18:21.477Z,84.10
2022-11-05T07:20:49.246Z,84.10
2022-11-05T07:23:16.746Z,84.20
2022-11-05T07:25:44.156Z,84.20
2022-11-05T07:28:11.503Z,84.30
2022-11-05T07:30:38.580Z,84.30
2022-11-05T07:33:05.507Z,84.40
2022-11-05T07:35:32.607Z,84.40
2022-11-05T07:37:59.654Z,84.40
2022-11-05T07:40:28.768Z,84.50
2022-11-05T07:42:58.109Z,84.50
2022-11-05T07:45:26.606Z,84.60
2022-11-05T07:48:04.389Z,84.60
2022-11-05T07:50:36.279Z,84.70
2022-11-05T07:53:10.027Z,84.80
2022-11-05T07:55:37.605Z,84.90
2022-11-05T07:58:04.513Z,84.90
2022-11-05T08:00:31.556Z,85.00
2022-11-05T08:03:18.515Z,85.10
2022-11-05T08:05:47.408Z,85.20
2022-11-05T08:08:19.167Z,85.30
2022-11-05T08:10:46.994Z,85.40
2022-11-05T08:13:15.083Z,85.40
2022-11-05T08:15:43.334Z,85.50
2022-11-05T08:18:16.134Z,85.50
2022-11-05T08:20:44.978Z,85.60
2022-11-05T08:23:12.454Z,85.60
2022-11-05T08:25:40.265Z,85.70
2022-11-05T08:28:10.688Z,85.70
2022-11-05T08:30:37.674Z,85.70
2022-11-05T08:33:07.380Z,85.80
2022-11-05T08:35:35.208Z,85.80
2022-11-05T08:38:04.030Z,85.80
2022-11-05T08:40:33.122Z,85.80
2022-11-05T08:43:02.656Z,85.80
2022-11-05T08:45:30.876Z,85.80
2022-11-05T08:48:04.846Z,85.80
2022-11-05T08:50:32.112Z,85.80
2022-11-05T08:52:59.415Z,85.90
2022-11-05T08:55:27.225Z,85.90
2022-11-05T08:58:07.451Z,85.90
2022-11-05T09:00:36.676Z,85.90
2022-11-05T09:03:05.866Z,85.90
2022-11-05T09:05:38.283Z,86.00
2022-11-05T09:08:13.647Z,86.00
2022-11-05T09:10:41.370Z,86.00
2022-11-05T09:13:13.055Z,86.00
2022-11-05T09:15:43.829Z,86.00
2022-11-05T09:18:13.962Z,86.00
2022-11-05T09:20:41.299Z,86.00
2022-11-05T09:23:09.842Z,86.10
2022-11-05T09:25:36.999Z,86.10
2022-11-05T09:28:16.502Z,86.10
2022-11-05T09:30:49.990Z,86.10
2022-11-05T09:33:19.384Z,86.10
2022-11-05T09:35:46.804Z,86.10
2022-11-05T09:38:14.223Z,86.10
2022-11-05T09:41:00.930Z,86.10
2022-11-05T09:43:40.611Z,86.00
2022-11-05T09:46:39.647Z,86.00
2022-11-05T09:49:20.579Z,86.00
2022-11-05T09:51:47.718Z,85.90
2022-11-05T09:54:15.475Z,86.00
2022-11-05T09:56:42.803Z,86.10
2022-11-05T09:59:20.738Z,86.20
2022-11-05T10:01:48.806Z,86.50
2022-11-05T10:04:26.241Z,86.60
2022-11-05T10:06:59.936Z,86.70
2022-11-05T10:09:40.256Z,86.60
2022-11-05T10:12:16.843Z,86.50
2022-11-05T10:14:50.429Z,86.30
2022-11-05T10:17:17.396Z,86.20
2022-11-05T10:20:09.791Z,86.00
2022-11-05T10:22:37.526Z,85.70
2022-11-05T10:25:17.300Z,85.60
2022-11-05T10:27:52.677Z,85.50
2022-11-05T10:30:20.617Z,85.40
2022-11-05T10:32:49.198Z,85.30
2022-11-05T10:35:22.476Z,85.20
2022-11-05T10:37:50.486Z,85.20
2022-11-05T10:40:17.375Z,85.10
2022-11-05T10:42:58.723Z,85.10
2022-11-05T10:45:37.038Z,85.10
2022-11-05T10:48:21.992Z,85.00
2022-11-05T10:50:49.084Z,84.80
2022-11-05T10:53:23.005Z,84.70
2022-11-05T10:55:51.514Z,84.60
2022-11-05T10:58:20.940Z,84.60
2022-11-05T11:00:53.626Z,84.70
2022-11-05T11:03:41.872Z,84.60
2022-11-05T11:06:26.725Z,84.60
2022-11-05T11:08:56.738Z,84.60
2022-11-05T11:11:34.126Z,84.40
2022-11-05T11:14:04.533Z,84.20
2022-11-05T11:16:42.967Z,83.90
2022-11-05T11:19:34.080Z,83.50
2022-11-05T11:22:04.071Z,83.00
2022-11-05T11:24:37.697Z,82.80
2022-11-05T11:27:18.794Z,82.70
2022-11-05T11:29:55.426Z,82.60
2022-11-05T11:32:25.743Z,82.50
2022-11-05T11:34:58.429Z,82.50
2022-11-05T11:37:30.607Z,82.50
2022-11-05T11:40:05.361Z,82.40
2022-11-05T11:42:36.005Z,82.30
2022-11-05T11:45:29.975Z,82.20
2022-11-05T11:47:58.000Z,82.20
2022-11-05T11:50:41.302Z,82.20
2022-11-05T11:53:20.475Z,82.20
2022-11-05T11:56:02.390Z,82.10
2022-11-05T11:58:45.215Z,82.10
2022-11-05T12:01:47.241Z,82.10
2022-11-05T12:04:31.491Z,82.20
2022-11-05T12:07:24.685Z,82.30
2022-11-05T12:10:03.551Z,82.40
2022-11-05T12:12:54.422Z,82.60
2022-11-05T12:15:24.307Z,82.50
2022-11-05T12:17:59.713Z,82.40
2022-11-05T12:20:38.482Z,82.30
2022-11-05T12:23:23.022Z,82.20
2022-11-05T12:26:09.002Z,82.00
2022-11-05T12:29:04.654Z,81.50
2022-11-05T12:31:28.440Z,81.30
2022-11-05T12:34:19.194Z,81.30
2022-11-05T12:37:04.075Z,81.00
2022-11-05T12:40:04.205Z,80.90
2022-11-05T12:42:38.996Z,80.80
2022-11-05T12:45:38.850Z,80.70
2022-11-05T12:48:11.902Z,80.50
2022-11-05T12:50:38.859Z,80.40
2022-11-05T12:53:05.717Z,80.30
2022-11-05T12:55:48.075Z,80.40
2022-11-05T12:58:18.347Z,80.30
2022-11-05T13:00:52.232Z,80.20
2022-11-05T13:03:26.133Z,80.20
2022-11-05T13:06:03.036Z,80.30
2022-11-05T13:09:01.860Z,80.40
2022-11-05T13:11:47.607Z,80.50
2022-11-05T13:14:19.706Z,80.50
2022-11-05T13:16:54.161Z,80.50
2022-11-05T13:19:31.147Z,80.40
2022-11-05T13:22:36.097Z,80.20
2022-11-05T13:25:11.934Z,80.00
2022-11-05T13:27:50.477Z,79.90
2022-11-05T13:30:21.808Z,79.90
2022-11-05T13:32:56.832Z,79.90
2022-11-05T13:35:35.906Z,79.90
2022-11-05T13:38:24.895Z,79.90
2022-11-05T13:41:13.010Z,80.10
2022-11-05T13:44:00.935Z,80.10
2022-11-05T13:47:11.892Z,80.20
2022-11-05T13:49:56.704Z,80.20
2022-11-05T13:52:38.690Z,80.40
2022-11-05T13:55:39.702Z,80.60
2022-11-05T13:58:28.047Z,80.80
2022-11-05T14:01:16.655Z,80.90
2022-11-05T14:03:52.594Z,81.20
2022-11-05T14:06:29.414Z,81.20
2022-11-05T14:09:00.251Z,81.20
2022-11-05T14:11:33.829Z,81.10
2022-11-05T14:14:05.346Z,81.10
2022-11-05T14:17:12.882Z,81.10
2022-11-05T14:20:04.590Z,81.20
2022-11-05T14:22:31.529Z,81.20
2022-11-05T14:24:59.927Z,81.20
2022-11-05T14:27:29.906Z,81.30
2022-11-05T14:29:57.312Z,81.40
2022-11-05T14:32:45.626Z,81.50
2022-11-05T14:35:18.468Z,81.50
2022-11-05T14:37:56.339Z,81.50
2022-11-05T14:40:36.522Z,81.50
2022-11-05T14:43:08.464Z,81.50
2022-11-05T14:45:42.361Z,81.50
2022-11-05T14:48:37.573Z,81.40
2022-11-05T14:51:27.944Z,81.50
2022-11-05T14:54:02.695Z,81.40
2022-11-05T14:56:40.649Z,81.40
2022-11-05T14:59:25.440Z,81.50
2022-11-05T15:01:57.163Z,81.70
2022-11-05T15:04:36.183Z,81.70
2022-11-05T15:07:03.211Z,81.70
2022-11-05T15:09:54.149Z,81.60
2022-11-05T15:12:35.911Z,81.60
2022-11-05T15:15:21.892Z,81.70
2022-11-05T15:18:05.717Z,81.70
2022-11-05T15:20:45.153Z,81.80
2022-11-05T15:23:16.920Z,81.90
2022-11-05T15:25:53.494Z,81.90
2022-11-05T15:28:35.656Z,82.10
2022-11-05T15:31:12.782Z,82.20
2022-11-05T15:33:44.647Z,82.20
2022-11-05T15:36:31.808Z,82.40
2022-11-05T15:39:27.943Z,82.40
2022-11-05T15:41:47.252Z,82.50
2022-11-05T15:44:38.226Z,82.60
2022-11-05T15:47:12.727Z,82.60
2022-11-05T15:49:41.862Z,82.70
2022-11-05T15:52:12.079Z,82.80
2022-11-05T15:54:39.125Z,82.80
2022-11-05T15:57:14.926Z,82.90
2022-11-05T15:59:46.555Z,82.90
2022-11-05T16:02:33.679Z,83.00
2022-11-05T16:05:06.651Z,83.10
2022-11-05T16:07:33.899Z,83.10
2022-11-05T16:10:02.195Z,83.20
2022-11-05T16:12:36.916Z,83.20
2022-11-05T16:15:25.585Z,83.20
2022-11-05T16:17:56.462Z,83.30
2022-11-05T16:20:26.610Z,83.30
2022-11-05T16:22:59.683Z,83.40
2022-11-05T16:25:53.158Z,83.50
2022-11-05T16:28:26.344Z,83.50
2022-11-05T16:30:58.019Z,83.70
2022-11-05T16:33:34.050Z,83.70
2022-11-05T16:36:01.151Z,83.80
2022-11-05T16:38:28.146Z,83.80
2022-11-05T16:40:55.111Z,83.80
2022-11-05T16:43:24.556Z,83.90
2022-11-05T16:45:57.654Z,83.90
2022-11-05T16:48:25.547Z,83.90
2022-11-05T16:50:53.137Z,84.00
2022-11-05T16:53:20.510Z,84.00
2022-11-05T16:55:47.793Z,84.00
2022-11-05T16:58:23.402Z,84.00
2022-11-05T17:00:52.498Z,84.10
2022-11-05T17:03:19.656Z,84.10
2022-11-05T17:05:47.050Z,84.10
2022-11-05T17:08:14.317Z,84.10
2022-11-05T17:10:41.483Z,84.10
2022-11-05T17:13:13.082Z,84.10
2022-11-05T17:15:40.122Z,84.20
2022-11-05T17:18:07.112Z,84.20
2022-11-05T17:20:40.295Z,84.30
2022-11-05T17:23:10.724Z,84.30
2022-11-05T17:25:38.939Z,84.30
2022-11-05T17:28:06.704Z,84.30
2022-11-05T17:30:33.845Z,84.30
2022-11-05T17:33:01.080Z,84.30
2022-11-05T17:35:28.112Z,84.30
2022-11-05T17:37:54.994Z,84.30
2022-11-05T17:40:22.880Z,84.30
2022-11-05T17:42:51.088Z,84.30
2022-11-05T17:45:18.486Z,84.30
2022-11-05T17:47:45.827Z,84.40
2022-11-05T17:50:14.898Z,84.40
2022-11-05T17:52:42.213Z,84.40
2022-11-05T17:55:16.671Z,84.40
2022-11-05T17:57:48.548Z,84.40
2022-11-05T18:00:21.427Z,84.40
2022-11-05T18:02:49.702Z,84.40
2022-11-05T18:05:21.720Z,84.30
2022-11-05T18:07:49.893Z,84.30
2022-11-05T18:10:17.317Z,84.30
2022-11-05T18:12:44.875Z,84.30
2022-11-05T18:15:13.068Z,84.30
2022-11-05T18:17:40.178Z,84.30
2022-11-05T18:20:14.223Z,84.20
2022-11-05T18:22:45.063Z,84.20
2022-11-05T18:25:12.491Z,84.10
2022-11-05T18:27:40.517Z,84.00
2022-11-05T18:30:08.924Z,84.00
2022-11-05T18:32:36.602Z,84.00
2022-11-05T18:35:03.623Z,83.90
2022-11-05T18:37:30.584Z,83.90
2022-11-05T18:39:57.503Z,83.90
2022-11-05T18:42:25.373Z,83.90
2022-11-05T18:44:52.533Z,83.90
2022-11-05T18:47:19.562Z,83.90
2022-11-05T18:49:46.487Z,83.90
2022-11-05T18:52:13.686Z,83.90
2022-11-05T18:54:40.777Z,83.90
2022-11-05T18:57:07.783Z,83.80
2022-11-05T18:59:38.560Z,83.80
2022-11-05T19:02:07.984Z,83.80
2022-11-05T19:04:36.301Z,83.80
2022-11-05T19:07:05.522Z,83.80
2022-11-05T19:09:34.325Z,83.80
2022-11-05T19:12:02.093Z,83.80
2022-11-05T19:14:30.203Z,83.80
2022-11-05T19:17:00.726Z,83.80
2022-11-05T19:19:28.190Z,83.80
2022-11-05T19:21:55.120Z,83.80
2022-11-05T19:24:22.181Z,83.80
2022-11-05T19:26:49.082Z,83.80
2022-11-05T19:29:16.351Z,83.80
2022-11-05T19:31:43.352Z,83.70
2022-11-05T19:34:10.379Z,83.70
2022-11-05T19:36:37.270Z,83.80
2022-11-05T19:39:08.843Z,83.80
2022-11-05T19:41:35.967Z,83.90
2022-11-05T19:44:03.194Z,83.90
2022-11-05T19:46:31.601Z,84.00
2022-11-05T19:49:00.906Z,84.00
2022-11-05T19:51:30.884Z,84.10
2022-11-05T19:54:00.554Z,84.10
2022-11-05T19:56:29.900Z,84.20
2022-11-05T19:58:57.607Z,84.20
2022-11-05T20:01:26.445Z,84.30
2022-11-05T20:03:55.233Z,84.30
2022-11-05T20:06:28.812Z,84.30
2022-11-05T20:11:49.877Z,84.30
2022-11-05T20:14:17.568Z,84.30
2022-11-05T20:16:46.024Z,84.30
2022-11-05T20:19:20.161Z,84.30
2022-11-05T20:21:47.890Z,84.30
2022-11-05T20:24:22.438Z,84.30
2022-11-05T20:26:52.900Z,84.30
2022-11-05T20:29:19.932Z,84.30
2022-11-05T20:31:47.224Z,84.30
2022-11-05T20:34:14.168Z,84.20
2022-11-05T20:36:41.473Z,84.20
2022-11-05T20:39:08.380Z,84.20
2022-11-05T20:41:35.390Z,84.20
2022-11-05T20:44:02.310Z,84.20
2022-11-05T20:46:29.289Z,84.20
2022-11-05T20:48:56.697Z,84.20
2022-11-05T20:51:25.346Z,84.10
2022-11-05T20:54:00.901Z,84.00
2022-11-05T20:56:30.573Z,84.00
2022-11-05T20:58:59.154Z,84.00
2022-11-05T21:01:32.203Z,84.00
2022-11-05T21:03:59.841Z,84.00
2022-11-05T21:06:27.118Z,84.00
2022-11-05T21:08:54.510Z,84.00
2022-11-05T21:11:21.476Z,83.90
2022-11-05T21:13:48.826Z,83.90
2022-11-05T21:16:18.495Z,83.80
2022-11-05T21:18:47.224Z,83.80
2022-11-05T21:21:19.604Z,83.80
2022-11-05T21:23:46.912Z,83.80
2022-11-05T21:26:15.294Z,83.80
2022-11-05T21:28:42.344Z,83.70
2022-11-05T21:31:09.410Z,83.70
2022-11-05T21:33:36.708Z,83.70
2022-11-05T21:36:10.277Z,83.70
2022-11-05T21:38:37.851Z,83.80
2022-11-05T21:41:05.838Z,83.70
2022-11-05T21:43:33.125Z,83.70
2022-11-05T21:46:04.431Z,83.70
2022-11-05T21:48:32.251Z,83.80
2022-11-05T21:51:18.040Z,83.80
2022-11-05T21:54:03.319Z,83.80
2022-11-05T21:56:49.302Z,83.80
2022-11-05T21:59:38.183Z,83.80
2022-11-05T22:02:05.762Z,83.90
2022-11-05T22:04:35.821Z,83.90
2022-11-05T22:07:03.583Z,83.90
2022-11-05T22:09:30.593Z,83.90
2022-11-05T22:11:58.112Z,83.90
2022-11-05T22:14:25.654Z,84.00
2022-11-05T22:16:52.897Z,83.90
2022-11-05T22:19:21.754Z,83.90
2022-11-05T22:21:48.933Z,83.90
2022-11-05T22:24:16.113Z,83.90
2022-11-05T22:26:43.649Z,83.90
2022-11-05T22:29:10.782Z,83.90
2022-11-05T22:31:37.979Z,83.90
2022-11-05T22:34:06.408Z,84.00
2022-11-05T22:36:34.974Z,84.00
2022-11-05T22:39:02.639Z,84.00
2022-11-05T22:41:30.258Z,84.00
2022-11-05T22:43:57.910Z,84.00
2022-11-05T22:46:26.439Z,84.00
2022-11-05T22:48:54.012Z,84.00
2022-11-05T22:51:27.266Z,84.00
2022-11-05T22:53:57.247Z,84.00
2022-11-05T22:56:29.913Z,84.00
2022-11-05T22:58:57.898Z,84.00
2022-11-05T23:01:25.373Z,84.00
2022-11-05T23:03:54.030Z,84.00
2022-11-05T23:06:46.299Z,84.00
2022-11-05T23:09:31.679Z,84.00
2022-11-05T23:11:59.590Z,84.00
2022-11-05T23:14:27.147Z,84.00
2022-11-05T23:17:12.999Z,84.00
2022-11-05T23:19:59.362Z,84.00
2022-11-05T23:22:47.364Z,84.00
2022-11-05T23:25:17.305Z,84.00
2022-11-05T23:27:46.345Z,84.10
2022-11-05T23:30:17.197Z,84.10
2022-11-05T23:32:44.185Z,84.10
2022-11-05T23:35:11.727Z,84.10
2022-11-05T23:37:57.338Z,84.10
2022-11-05T23:40:51.636Z,84.10
2022-11-05T23:43:37.210Z,84.10
2022-11-05T23:46:22.502Z,84.20
2022-11-05T23:48:50.716Z,84.30
2022-11-05T23:51:17.777Z,84.30
2022-11-05T23:53:44.718Z,84.40
2022-11-05T23:56:15.842Z,84.40
2022-11-05T23:58:42.955Z,84.40
